sensor_id;sensor_type;location;lat;lon;timestamp;temperature;humidity
13707;DHT22;6925;47.816;13.072;2023-07-29T00:01:40;19.40;88.30
13707;DHT22;6925;47.816;13.072;2023-07-29T00:04:07;19.40;88.80
13707;DHT22;6925;47.816;13.072;2023-07-29T00:06:35;19.50;88.50
13707;DHT22;6925;47.816;13.072;2023-07-29T00:09:02;19.40;88.30
13707;DHT22;6925;47.816;13.072;2023-07-29T00:11:29;19.40;86.70
13707;DHT22;6925;47.816;13.072;2023-07-29T00:13:59;19.40;86.40
13707;DHT22;6925;47.816;13.072;2023-07-29T00:16:26;19.30;87.20
13707;DHT22;6925;47.816;13.072;2023-07-29T00:18:53;19.40;86.90
13707;DHT22;6925;47.816;13.072;2023-07-29T00:21:20;19.40;86.00
13707;DHT22;6925;47.816;13.072;2023-07-29T00:23:47;19.40;86.70
13707;DHT22;6925;47.816;13.072;2023-07-29T00:26:14;19.40;86.40
13707;DHT22;6925;47.816;13.072;2023-07-29T00:28:41;19.40;86.00
13707;DHT22;6925;47.816;13.072;2023-07-29T00:31:09;19.40;85.80
13707;DHT22;6925;47.816;13.072;2023-07-29T00:33:36;19.40;86.40
13707;DHT22;6925;47.816;13.072;2023-07-29T00:36:04;19.40;86.60
13707;DHT22;6925;47.816;13.072;2023-07-29T00:38:31;19.40;86.70
13707;DHT22;6925;47.816;13.072;2023-07-29T00:40:58;19.40;86.70
13707;DHT22;6925;47.816;13.072;2023-07-29T00:43:26;19.40;86.90
13707;DHT22;6925;47.816;13.072;2023-07-29T00:45:53;19.40;86.90
13707;DHT22;6925;47.816;13.072;2023-07-29T00:48:21;19.40;86.70
13707;DHT22;6925;47.816;13.072;2023-07-29T00:50:49;19.40;86.40
13707;DHT22;6925;47.816;13.072;2023-07-29T00:53:16;19.40;86.50
13707;DHT22;6925;47.816;13.072;2023-07-29T00:55:43;19.30;86.70
13707;DHT22;6925;47.816;13.072;2023-07-29T00:58:10;19.40;87.30
13707;DHT22;6925;47.816;13.072;2023-07-29T01:00:37;19.30;86.60
13707;DHT22;6925;47.816;13.072;2023-07-29T01:03:04;19.30;86.20
13707;DHT22;6925;47.816;13.072;2023-07-29T01:05:46;19.30;86.30
13707;DHT22;6925;47.816;13.072;2023-07-29T01:08:21;19.20;86.20
13707;DHT22;6925;47.816;13.072;2023-07-29T01:10:56;19.20;86.40
13707;DHT22;6925;47.816;13.072;2023-07-29T01:13:30;19.30;85.90
13707;DHT22;6925;47.816;13.072;2023-07-29T01:16:01;19.20;85.50
13707;DHT22;6925;47.816;13.072;2023-07-29T01:18:32;19.30;86.20
13707;DHT22;6925;47.816;13.072;2023-07-29T01:21:04;19.30;85.70
13707;DHT22;6925;47.816;13.072;2023-07-29T01:23:34;19.30;85.10
13707;DHT22;6925;47.816;13.072;2023-07-29T01:26:02;19.30;85.10
13707;DHT22;6925;47.816;13.072;2023-07-29T01:28:29;19.30;85.30
13707;DHT22;6925;47.816;13.072;2023-07-29T01:31:01;19.20;84.50
13707;DHT22;6925;47.816;13.072;2023-07-29T01:33:35;19.20;84.80
13707;DHT22;6925;47.816;13.072;2023-07-29T01:36:13;19.20;84.20
13707;DHT22;6925;47.816;13.072;2023-07-29T01:38:43;19.20;84.10
13707;DHT22;6925;47.816;13.072;2023-07-29T01:41:11;19.20;84.30
13707;DHT22;6925;47.816;13.072;2023-07-29T01:43:39;19.30;83.60
13707;DHT22;6925;47.816;13.072;2023-07-29T01:46:09;19.20;83.90
13707;DHT22;6925;47.816;13.072;2023-07-29T01:48:37;19.20;84.60
13707;DHT22;6925;47.816;13.072;2023-07-29T01:51:04;19.20;84.60
13707;DHT22;6925;47.816;13.072;2023-07-29T01:53:31;19.30;84.40
13707;DHT22;6925;47.816;13.072;2023-07-29T01:55:59;19.30;83.40
13707;DHT22;6925;47.816;13.072;2023-07-29T01:58:26;19.30;84.10
13707;DHT22;6925;47.816;13.072;2023-07-29T02:00:53;19.20;83.70
13707;DHT22;6925;47.816;13.072;2023-07-29T02:03:20;19.20;83.90
13707;DHT22;6925;47.816;13.072;2023-07-29T02:05:47;19.20;83.90
13707;DHT22;6925;47.816;13.072;2023-07-29T02:08:15;19.20;83.30
13707;DHT22;6925;47.816;13.072;2023-07-29T02:10:42;19.30;82.90
13707;DHT22;6925;47.816;13.072;2023-07-29T02:13:12;19.20;83.00
13707;DHT22;6925;47.816;13.072;2023-07-29T02:15:39;19.20;83.50
13707;DHT22;6925;47.816;13.072;2023-07-29T02:18:06;19.20;83.70
13707;DHT22;6925;47.816;13.072;2023-07-29T02:20:33;19.20;83.40
13707;DHT22;6925;47.816;13.072;2023-07-29T02:23:00;19.20;83.80
13707;DHT22;6925;47.816;13.072;2023-07-29T02:25:27;19.10;84.00
13707;DHT22;6925;47.816;13.072;2023-07-29T02:27:54;19.10;84.40
13707;DHT22;6925;47.816;13.072;2023-07-29T02:30:22;19.10;84.10
13707;DHT22;6925;47.816;13.072;2023-07-29T02:32:49;19.10;83.90
13707;DHT22;6925;47.816;13.072;2023-07-29T02:35:17;19.10;83.60
13707;DHT22;6925;47.816;13.072;2023-07-29T02:37:44;19.10;83.70
13707;DHT22;6925;47.816;13.072;2023-07-29T02:40:11;19.10;84.00
13707;DHT22;6925;47.816;13.072;2023-07-29T02:42:38;19.20;84.10
13707;DHT22;6925;47.816;13.072;2023-07-29T02:45:06;19.10;84.00
13707;DHT22;6925;47.816;13.072;2023-07-29T02:47:37;19.10;83.70
13707;DHT22;6925;47.816;13.072;2023-07-29T02:50:05;19.10;83.80
13707;DHT22;6925;47.816;13.072;2023-07-29T02:52:32;19.10;84.10
13707;DHT22;6925;47.816;13.072;2023-07-29T02:54:59;19.10;83.80
13707;DHT22;6925;47.816;13.072;2023-07-29T02:57:26;19.10;83.80
13707;DHT22;6925;47.816;13.072;2023-07-29T02:59:53;19.10;83.90
13707;DHT22;6925;47.816;13.072;2023-07-29T03:02:20;19.10;84.10
13707;DHT22;6925;47.816;13.072;2023-07-29T03:04:49;19.00;84.00
13707;DHT22;6925;47.816;13.072;2023-07-29T03:07:16;19.00;84.30
13707;DHT22;6925;47.816;13.072;2023-07-29T03:09:43;19.00;84.60
13707;DHT22;6925;47.816;13.072;2023-07-29T03:12:10;19.00;84.40
13707;DHT22;6925;47.816;13.072;2023-07-29T03:14:37;19.00;84.20
13707;DHT22;6925;47.816;13.072;2023-07-29T03:17:05;19.00;84.70
13707;DHT22;6925;47.816;13.072;2023-07-29T03:19:32;19.00;84.30
13707;DHT22;6925;47.816;13.072;2023-07-29T03:22:00;19.00;84.00
13707;DHT22;6925;47.816;13.072;2023-07-29T03:24:27;19.00;84.00
13707;DHT22;6925;47.816;13.072;2023-07-29T03:26:54;19.00;84.30
13707;DHT22;6925;47.816;13.072;2023-07-29T03:29:21;19.00;84.30
13707;DHT22;6925;47.816;13.072;2023-07-29T03:31:48;18.90;84.40
13707;DHT22;6925;47.816;13.072;2023-07-29T03:34:15;18.90;84.80
13707;DHT22;6925;47.816;13.072;2023-07-29T03:36:42;18.90;84.90
13707;DHT22;6925;47.816;13.072;2023-07-29T03:39:13;18.90;85.10
13707;DHT22;6925;47.816;13.072;2023-07-29T03:41:40;18.90;85.00
13707;DHT22;6925;47.816;13.072;2023-07-29T03:44:07;18.90;85.20
13707;DHT22;6925;47.816;13.072;2023-07-29T03:46:34;19.00;85.40
13707;DHT22;6925;47.816;13.072;2023-07-29T03:49:01;19.00;85.30
13707;DHT22;6925;47.816;13.072;2023-07-29T03:51:28;18.90;85.20
13707;DHT22;6925;47.816;13.072;2023-07-29T03:53:55;19.00;85.20
13707;DHT22;6925;47.816;13.072;2023-07-29T03:56:24;19.00;85.00
13707;DHT22;6925;47.816;13.072;2023-07-29T03:58:51;18.90;85.00
13707;DHT22;6925;47.816;13.072;2023-07-29T04:01:19;18.90;85.00
13707;DHT22;6925;47.816;13.072;2023-07-29T04:03:46;18.90;84.70
13707;DHT22;6925;47.816;13.072;2023-07-29T04:06:13;18.90;84.60
13707;DHT22;6925;47.816;13.072;2023-07-29T04:08:40;18.90;84.50
13707;DHT22;6925;47.816;13.072;2023-07-29T04:11:08;18.90;84.90
13707;DHT22;6925;47.816;13.072;2023-07-29T04:13:36;18.90;84.30
13707;DHT22;6925;47.816;13.072;2023-07-29T04:16:04;18.90;84.40
13707;DHT22;6925;47.816;13.072;2023-07-29T04:18:31;18.90;84.40
13707;DHT22;6925;47.816;13.072;2023-07-29T04:20:58;18.90;84.10
13707;DHT22;6925;47.816;13.072;2023-07-29T04:23:25;18.90;84.00
13707;DHT22;6925;47.816;13.072;2023-07-29T04:25:53;18.90;83.50
13707;DHT22;6925;47.816;13.072;2023-07-29T04:28:20;18.90;84.00
13707;DHT22;6925;47.816;13.072;2023-07-29T04:30:48;18.90;84.20
13707;DHT22;6925;47.816;13.072;2023-07-29T04:33:15;18.90;84.50
13707;DHT22;6925;47.816;13.072;2023-07-29T04:35:42;18.90;84.40
13707;DHT22;6925;47.816;13.072;2023-07-29T04:38:09;18.90;84.70
13707;DHT22;6925;47.816;13.072;2023-07-29T04:40:36;19.00;84.70
13707;DHT22;6925;47.816;13.072;2023-07-29T04:43:03;19.00;84.70
13707;DHT22;6925;47.816;13.072;2023-07-29T04:45:30;19.00;84.40
13707;DHT22;6925;47.816;13.072;2023-07-29T04:47:59;19.00;84.30
13707;DHT22;6925;47.816;13.072;2023-07-29T04:50:26;19.00;84.00
13707;DHT22;6925;47.816;13.072;2023-07-29T04:52:53;19.00;84.10
13707;DHT22;6925;47.816;13.072;2023-07-29T04:55:20;19.10;83.80
13707;DHT22;6925;47.816;13.072;2023-07-29T04:57:48;19.10;83.90
13707;DHT22;6925;47.816;13.072;2023-07-29T05:00:15;19.00;83.70
13707;DHT22;6925;47.816;13.072;2023-07-29T05:02:43;19.00;84.20
13707;DHT22;6925;47.816;13.072;2023-07-29T05:05:11;19.00;83.80
13707;DHT22;6925;47.816;13.072;2023-07-29T05:07:38;19.00;83.80
13707;DHT22;6925;47.816;13.072;2023-07-29T05:10:06;19.00;83.90
13707;DHT22;6925;47.816;13.072;2023-07-29T05:12:33;19.00;84.10
13707;DHT22;6925;47.816;13.072;2023-07-29T05:15:00;19.10;84.40
13707;DHT22;6925;47.816;13.072;2023-07-29T05:17:28;19.10;84.80
13707;DHT22;6925;47.816;13.072;2023-07-29T05:19:55;19.20;84.70
13707;DHT22;6925;47.816;13.072;2023-07-29T05:22:23;19.20;84.70
13707;DHT22;6925;47.816;13.072;2023-07-29T05:24:50;19.30;84.50
13707;DHT22;6925;47.816;13.072;2023-07-29T05:27:17;19.30;84.00
13707;DHT22;6925;47.816;13.072;2023-07-29T05:29:44;19.30;84.40
13707;DHT22;6925;47.816;13.072;2023-07-29T05:32:11;19.30;84.60
13707;DHT22;6925;47.816;13.072;2023-07-29T05:34:39;19.40;83.70
13707;DHT22;6925;47.816;13.072;2023-07-29T05:37:06;19.30;83.00
13707;DHT22;6925;47.816;13.072;2023-07-29T05:39:34;19.30;83.40
13707;DHT22;6925;47.816;13.072;2023-07-29T05:42:01;19.40;84.10
13707;DHT22;6925;47.816;13.072;2023-07-29T05:44:29;19.40;84.10
13707;DHT22;6925;47.816;13.072;2023-07-29T05:46:56;19.40;83.70
13707;DHT22;6925;47.816;13.072;2023-07-29T05:49:23;19.40;83.50
13707;DHT22;6925;47.816;13.072;2023-07-29T05:51:50;19.40;83.50
13707;DHT22;6925;47.816;13.072;2023-07-29T05:54:18;19.50;83.50
13707;DHT22;6925;47.816;13.072;2023-07-29T05:56:47;19.50;83.90
13707;DHT22;6925;47.816;13.072;2023-07-29T05:59:14;19.60;83.90
13707;DHT22;6925;47.816;13.072;2023-07-29T06:01:42;19.60;84.50
13707;DHT22;6925;47.816;13.072;2023-07-29T06:04:09;19.70;84.40
13707;DHT22;6925;47.816;13.072;2023-07-29T06:06:36;19.80;83.60
13707;DHT22;6925;47.816;13.072;2023-07-29T06:09:03;19.80;83.60
13707;DHT22;6925;47.816;13.072;2023-07-29T06:11:30;19.90;83.60
13707;DHT22;6925;47.816;13.072;2023-07-29T06:13:58;19.90;83.70
13707;DHT22;6925;47.816;13.072;2023-07-29T06:16:25;20.00;83.30
13707;DHT22;6925;47.816;13.072;2023-07-29T06:18:52;20.00;83.70
13707;DHT22;6925;47.816;13.072;2023-07-29T06:21:19;20.10;83.30
13707;DHT22;6925;47.816;13.072;2023-07-29T06:23:47;20.20;83.10
13707;DHT22;6925;47.816;13.072;2023-07-29T06:26:14;20.20;82.50
13707;DHT22;6925;47.816;13.072;2023-07-29T06:28:41;20.30;82.60
13707;DHT22;6925;47.816;13.072;2023-07-29T06:31:10;20.20;82.60
13707;DHT22;6925;47.816;13.072;2023-07-29T06:33:37;20.30;83.00
13707;DHT22;6925;47.816;13.072;2023-07-29T06:36:04;20.30;82.20
13707;DHT22;6925;47.816;13.072;2023-07-29T06:38:31;20.30;82.50
13707;DHT22;6925;47.816;13.072;2023-07-29T06:40:58;20.40;82.70
13707;DHT22;6925;47.816;13.072;2023-07-29T06:43:25;20.40;81.90
13707;DHT22;6925;47.816;13.072;2023-07-29T06:45:52;20.50;82.70
13707;DHT22;6925;47.816;13.072;2023-07-29T06:48:20;20.60;81.70
13707;DHT22;6925;47.816;13.072;2023-07-29T06:50:48;20.60;81.40
13707;DHT22;6925;47.816;13.072;2023-07-29T06:53:16;20.60;81.50
13707;DHT22;6925;47.816;13.072;2023-07-29T06:55:43;20.70;81.40
13707;DHT22;6925;47.816;13.072;2023-07-29T06:58:10;20.70;82.10
13707;DHT22;6925;47.816;13.072;2023-07-29T07:00:37;20.70;81.70
13707;DHT22;6925;47.816;13.072;2023-07-29T07:03:04;20.80;81.20
13707;DHT22;6925;47.816;13.072;2023-07-29T07:05:33;20.80;81.40
13707;DHT22;6925;47.816;13.072;2023-07-29T07:08:00;20.80;80.80
13707;DHT22;6925;47.816;13.072;2023-07-29T07:10:26;20.80;80.80
13707;DHT22;6925;47.816;13.072;2023-07-29T07:12:53;20.80;81.00
13707;DHT22;6925;47.816;13.072;2023-07-29T07:15:20;20.80;80.80
13707;DHT22;6925;47.816;13.072;2023-07-29T07:17:47;20.90;80.70
13707;DHT22;6925;47.816;13.072;2023-07-29T07:20:14;20.90;80.60
13707;DHT22;6925;47.816;13.072;2023-07-29T07:22:43;21.00;81.00
13707;DHT22;6925;47.816;13.072;2023-07-29T07:25:10;21.10;80.80
13707;DHT22;6925;47.816;13.072;2023-07-29T07:27:37;21.20;81.00
13707;DHT22;6925;47.816;13.072;2023-07-29T07:30:04;21.20;81.20
13707;DHT22;6925;47.816;13.072;2023-07-29T07:32:32;21.30;81.00
13707;DHT22;6925;47.816;13.072;2023-07-29T07:34:58;21.40;80.40
13707;DHT22;6925;47.816;13.072;2023-07-29T07:37:26;21.40;80.80
13707;DHT22;6925;47.816;13.072;2023-07-29T07:39:54;21.50;78.70
13707;DHT22;6925;47.816;13.072;2023-07-29T07:42:21;21.50;79.40
13707;DHT22;6925;47.816;13.072;2023-07-29T07:44:48;21.60;79.10
13707;DHT22;6925;47.816;13.072;2023-07-29T07:47:15;21.70;78.40
13707;DHT22;6925;47.816;13.072;2023-07-29T07:49:42;21.80;78.60
13707;DHT22;6925;47.816;13.072;2023-07-29T07:52:09;21.80;77.30
13707;DHT22;6925;47.816;13.072;2023-07-29T07:54:35;21.90;76.90
13707;DHT22;6925;47.816;13.072;2023-07-29T07:57:05;21.90;76.30
13707;DHT22;6925;47.816;13.072;2023-07-29T07:59:32;21.90;77.10
13707;DHT22;6925;47.816;13.072;2023-07-29T08:01:59;21.90;76.90
13707;DHT22;6925;47.816;13.072;2023-07-29T08:04:26;22.00;75.20
13707;DHT22;6925;47.816;13.072;2023-07-29T08:06:53;22.00;75.90
13707;DHT22;6925;47.816;13.072;2023-07-29T08:09:20;22.00;75.70
13707;DHT22;6925;47.816;13.072;2023-07-29T08:11:47;22.00;75.10
13707;DHT22;6925;47.816;13.072;2023-07-29T08:14:15;22.10;74.60
13707;DHT22;6925;47.816;13.072;2023-07-29T08:16:42;22.20;74.70
13707;DHT22;6925;47.816;13.072;2023-07-29T08:19:09;22.20;75.50
13707;DHT22;6925;47.816;13.072;2023-07-29T08:21:36;22.30;74.30
13707;DHT22;6925;47.816;13.072;2023-07-29T08:24:03;22.30;74.80
13707;DHT22;6925;47.816;13.072;2023-07-29T08:26:32;22.40;74.90
13707;DHT22;6925;47.816;13.072;2023-07-29T08:28:59;22.40;73.50
13707;DHT22;6925;47.816;13.072;2023-07-29T08:31:27;22.40;73.20
13707;DHT22;6925;47.816;13.072;2023-07-29T08:33:54;22.40;74.00
13707;DHT22;6925;47.816;13.072;2023-07-29T08:36:21;22.40;73.60
13707;DHT22;6925;47.816;13.072;2023-07-29T08:38:48;22.40;72.70
13707;DHT22;6925;47.816;13.072;2023-07-29T08:41:24;22.40;72.10
13707;DHT22;6925;47.816;13.072;2023-07-29T08:43:59;22.40;70.10
13707;DHT22;6925;47.816;13.072;2023-07-29T08:46:30;22.40;71.30
13707;DHT22;6925;47.816;13.072;2023-07-29T08:48:57;22.40;70.70
13707;DHT22;6925;47.816;13.072;2023-07-29T08:51:27;22.30;70.70
13707;DHT22;6925;47.816;13.072;2023-07-29T08:53:55;22.30;70.50
13707;DHT22;6925;47.816;13.072;2023-07-29T08:56:23;22.30;71.00
13707;DHT22;6925;47.816;13.072;2023-07-29T08:58:51;22.30;71.50
13707;DHT22;6925;47.816;13.072;2023-07-29T09:01:18;22.30;71.60
13707;DHT22;6925;47.816;13.072;2023-07-29T09:03:47;22.30;71.70
13707;DHT22;6925;47.816;13.072;2023-07-29T09:06:14;22.30;71.70
13707;DHT22;6925;47.816;13.072;2023-07-29T09:08:41;22.40;72.10
13707;DHT22;6925;47.816;13.072;2023-07-29T09:11:09;22.40;72.20
13707;DHT22;6925;47.816;13.072;2023-07-29T09:13:37;22.40;72.70
13707;DHT22;6925;47.816;13.072;2023-07-29T09:16:05;22.40;73.20
13707;DHT22;6925;47.816;13.072;2023-07-29T09:18:32;22.40;73.10
13707;DHT22;6925;47.816;13.072;2023-07-29T09:21:00;22.40;73.00
13707;DHT22;6925;47.816;13.072;2023-07-29T09:23:28;22.40;73.90
13707;DHT22;6925;47.816;13.072;2023-07-29T09:26:01;22.40;74.50
13707;DHT22;6925;47.816;13.072;2023-07-29T09:28:33;22.40;75.00
13707;DHT22;6925;47.816;13.072;2023-07-29T09:31:00;22.50;76.90
13707;DHT22;6925;47.816;13.072;2023-07-29T09:33:27;22.50;76.20
13707;DHT22;6925;47.816;13.072;2023-07-29T09:35:55;22.50;76.40
13707;DHT22;6925;47.816;13.072;2023-07-29T09:38:28;22.50;77.00
13707;DHT22;6925;47.816;13.072;2023-07-29T09:40:56;22.50;75.90
13707;DHT22;6925;47.816;13.072;2023-07-29T09:43:25;22.50;75.70
13707;DHT22;6925;47.816;13.072;2023-07-29T09:45:53;22.50;76.60
13707;DHT22;6925;47.816;13.072;2023-07-29T09:48:22;22.50;76.20
13707;DHT22;6925;47.816;13.072;2023-07-29T09:50:49;22.60;76.10
13707;DHT22;6925;47.816;13.072;2023-07-29T09:53:17;22.60;76.30
13707;DHT22;6925;47.816;13.072;2023-07-29T09:55:48;22.70;75.70
13707;DHT22;6925;47.816;13.072;2023-07-29T09:58:19;22.70;74.80
13707;DHT22;6925;47.816;13.072;2023-07-29T10:00:52;22.70;74.70
13707;DHT22;6925;47.816;13.072;2023-07-29T10:03:21;22.70;74.00
13707;DHT22;6925;47.816;13.072;2023-07-29T10:05:48;22.70;74.60
13707;DHT22;6925;47.816;13.072;2023-07-29T10:08:16;22.70;74.60
13707;DHT22;6925;47.816;13.072;2023-07-29T10:10:45;22.80;75.10
13707;DHT22;6925;47.816;13.072;2023-07-29T10:13:14;22.80;75.80
13707;DHT22;6925;47.816;13.072;2023-07-29T10:15:42;22.90;75.20
13707;DHT22;6925;47.816;13.072;2023-07-29T10:18:10;23.00;74.70
13707;DHT22;6925;47.816;13.072;2023-07-29T10:20:39;22.90;74.00
13707;DHT22;6925;47.816;13.072;2023-07-29T10:23:07;22.90;73.80
13707;DHT22;6925;47.816;13.072;2023-07-29T10:25:38;22.90;73.70
13707;DHT22;6925;47.816;13.072;2023-07-29T10:28:08;22.90;73.50
13707;DHT22;6925;47.816;13.072;2023-07-29T10:30:36;22.90;73.90
13707;DHT22;6925;47.816;13.072;2023-07-29T10:33:05;22.80;74.10
13707;DHT22;6925;47.816;13.072;2023-07-29T10:35:32;22.90;76.10
13707;DHT22;6925;47.816;13.072;2023-07-29T10:38:00;22.90;75.60
13707;DHT22;6925;47.816;13.072;2023-07-29T10:40:44;23.00;76.40
13707;DHT22;6925;47.816;13.072;2023-07-29T10:43:12;23.00;76.70
13707;DHT22;6925;47.816;13.072;2023-07-29T10:45:46;23.10;77.00
13707;DHT22;6925;47.816;13.072;2023-07-29T10:48:42;23.10;77.20
13707;DHT22;6925;47.816;13.072;2023-07-29T10:51:25;23.20;77.40
13707;DHT22;6925;47.816;13.072;2023-07-29T10:53:56;23.20;78.00
13707;DHT22;6925;47.816;13.072;2023-07-29T10:56:28;23.30;77.20
13707;DHT22;6925;47.816;13.072;2023-07-29T10:58:56;23.40;76.00
13707;DHT22;6925;47.816;13.072;2023-07-29T11:01:29;23.40;76.00
13707;DHT22;6925;47.816;13.072;2023-07-29T11:04:25;23.50;76.30
13707;DHT22;6925;47.816;13.072;2023-07-29T11:07:19;23.60;75.90
13707;DHT22;6925;47.816;13.072;2023-07-29T11:09:56;23.70;74.90
13707;DHT22;6925;47.816;13.072;2023-07-29T11:12:34;23.90;74.20
13707;DHT22;6925;47.816;13.072;2023-07-29T11:15:04;23.90;73.10
13707;DHT22;6925;47.816;13.072;2023-07-29T11:17:33;24.10;74.20
13707;DHT22;6925;47.816;13.072;2023-07-29T11:20:01;24.20;72.70
13707;DHT22;6925;47.816;13.072;2023-07-29T11:22:29;24.30;73.00
13707;DHT22;6925;47.816;13.072;2023-07-29T11:24:57;24.50;73.00
13707;DHT22;6925;47.816;13.072;2023-07-29T11:27:24;24.50;72.30
13707;DHT22;6925;47.816;13.072;2023-07-29T11:29:55;24.60;72.30
13707;DHT22;6925;47.816;13.072;2023-07-29T11:32:23;24.70;72.20
13707;DHT22;6925;47.816;13.072;2023-07-29T11:34:51;24.80;71.50
13707;DHT22;6925;47.816;13.072;2023-07-29T11:37:18;24.90;70.50
13707;DHT22;6925;47.816;13.072;2023-07-29T11:39:47;25.00;70.00
13707;DHT22;6925;47.816;13.072;2023-07-29T11:42:15;25.00;70.10
13707;DHT22;6925;47.816;13.072;2023-07-29T11:44:42;25.00;69.50
13707;DHT22;6925;47.816;13.072;2023-07-29T11:47:10;25.10;68.80
13707;DHT22;6925;47.816;13.072;2023-07-29T11:49:39;25.10;68.10
13707;DHT22;6925;47.816;13.072;2023-07-29T11:52:09;25.20;67.90
13707;DHT22;6925;47.816;13.072;2023-07-29T11:54:37;25.40;67.70
13707;DHT22;6925;47.816;13.072;2023-07-29T11:57:06;25.40;68.30
13707;DHT22;6925;47.816;13.072;2023-07-29T11:59:34;25.50;68.50
13707;DHT22;6925;47.816;13.072;2023-07-29T12:02:02;25.60;68.50
13707;DHT22;6925;47.816;13.072;2023-07-29T12:04:32;25.70;68.40
13707;DHT22;6925;47.816;13.072;2023-07-29T12:07:01;25.80;68.80
13707;DHT22;6925;47.816;13.072;2023-07-29T12:09:29;25.90;68.50
13707;DHT22;6925;47.816;13.072;2023-07-29T12:11:57;26.00;68.60
13707;DHT22;6925;47.816;13.072;2023-07-29T12:14:26;26.10;64.60
13707;DHT22;6925;47.816;13.072;2023-07-29T12:16:53;26.20;66.20
13707;DHT22;6925;47.816;13.072;2023-07-29T12:19:20;26.20;64.20
13707;DHT22;6925;47.816;13.072;2023-07-29T12:21:48;26.40;65.40
13707;DHT22;6925;47.816;13.072;2023-07-29T12:24:15;26.50;64.80
13707;DHT22;6925;47.816;13.072;2023-07-29T12:26:44;26.60;62.00
13707;DHT22;6925;47.816;13.072;2023-07-29T12:29:15;26.70;65.40
13707;DHT22;6925;47.816;13.072;2023-07-29T12:31:42;26.90;63.00
13707;DHT22;6925;47.816;13.072;2023-07-29T12:34:10;26.90;61.90
13707;DHT22;6925;47.816;13.072;2023-07-29T12:36:42;27.00;64.30
13707;DHT22;6925;47.816;13.072;2023-07-29T12:39:16;27.20;59.70
13707;DHT22;6925;47.816;13.072;2023-07-29T12:41:45;27.30;59.90
13707;DHT22;6925;47.816;13.072;2023-07-29T12:44:12;27.40;59.60
13707;DHT22;6925;47.816;13.072;2023-07-29T12:46:39;27.40;59.30
13707;DHT22;6925;47.816;13.072;2023-07-29T12:49:06;27.50;61.90
13707;DHT22;6925;47.816;13.072;2023-07-29T12:51:34;27.60;60.50
13707;DHT22;6925;47.816;13.072;2023-07-29T12:54:02;27.70;55.80
13707;DHT22;6925;47.816;13.072;2023-07-29T12:56:29;27.80;56.00
13707;DHT22;6925;47.816;13.072;2023-07-29T12:58:59;27.90;55.70
13707;DHT22;6925;47.816;13.072;2023-07-29T13:01:26;27.90;54.40
13707;DHT22;6925;47.816;13.072;2023-07-29T13:03:54;27.90;55.20
13707;DHT22;6925;47.816;13.072;2023-07-29T13:06:22;27.90;56.60
13707;DHT22;6925;47.816;13.072;2023-07-29T13:08:49;27.90;57.10
13707;DHT22;6925;47.816;13.072;2023-07-29T13:11:17;27.90;58.20
13707;DHT22;6925;47.816;13.072;2023-07-29T13:13:44;28.00;58.10
13707;DHT22;6925;47.816;13.072;2023-07-29T13:16:13;28.00;56.70
13707;DHT22;6925;47.816;13.072;2023-07-29T13:18:40;27.90;56.50
13707;DHT22;6925;47.816;13.072;2023-07-29T13:21:07;27.80;56.10
13707;DHT22;6925;47.816;13.072;2023-07-29T13:23:35;27.70;56.90
13707;DHT22;6925;47.816;13.072;2023-07-29T13:26:02;27.80;57.50
13707;DHT22;6925;47.816;13.072;2023-07-29T13:28:29;27.90;57.60
13707;DHT22;6925;47.816;13.072;2023-07-29T13:30:56;28.10;56.50
13707;DHT22;6925;47.816;13.072;2023-07-29T13:33:25;28.20;57.20
13707;DHT22;6925;47.816;13.072;2023-07-29T13:35:52;28.20;56.70
13707;DHT22;6925;47.816;13.072;2023-07-29T13:38:19;28.30;56.50
13707;DHT22;6925;47.816;13.072;2023-07-29T13:40:46;28.30;56.40
13707;DHT22;6925;47.816;13.072;2023-07-29T13:43:16;28.40;56.50
13707;DHT22;6925;47.816;13.072;2023-07-29T13:45:43;28.60;56.00
13707;DHT22;6925;47.816;13.072;2023-07-29T13:48:11;28.70;54.10
13707;DHT22;6925;47.816;13.072;2023-07-29T13:50:39;28.60;53.70
13707;DHT22;6925;47.816;13.072;2023-07-29T13:53:06;28.60;55.10
13707;DHT22;6925;47.816;13.072;2023-07-29T13:55:34;28.60;54.80
13707;DHT22;6925;47.816;13.072;2023-07-29T13:58:01;28.70;55.40
13707;DHT22;6925;47.816;13.072;2023-07-29T14:00:28;28.80;55.00
13707;DHT22;6925;47.816;13.072;2023-07-29T14:02:55;28.90;55.20
13707;DHT22;6925;47.816;13.072;2023-07-29T14:05:22;29.00;54.30
13707;DHT22;6925;47.816;13.072;2023-07-29T14:07:50;28.90;54.20
13707;DHT22;6925;47.816;13.072;2023-07-29T14:10:17;28.90;54.50
13707;DHT22;6925;47.816;13.072;2023-07-29T14:12:44;29.00;54.20
13707;DHT22;6925;47.816;13.072;2023-07-29T14:15:11;29.20;54.60
13707;DHT22;6925;47.816;13.072;2023-07-29T14:17:39;29.30;53.50
13707;DHT22;6925;47.816;13.072;2023-07-29T14:20:07;29.30;53.30
13707;DHT22;6925;47.816;13.072;2023-07-29T14:22:34;29.30;53.90
13707;DHT22;6925;47.816;13.072;2023-07-29T14:25:03;29.30;53.10
13707;DHT22;6925;47.816;13.072;2023-07-29T14:27:30;29.30;52.80
13707;DHT22;6925;47.816;13.072;2023-07-29T14:29:57;29.20;52.00
13707;DHT22;6925;47.816;13.072;2023-07-29T14:32:24;29.10;52.20
13707;DHT22;6925;47.816;13.072;2023-07-29T14:34:52;29.00;52.70
13707;DHT22;6925;47.816;13.072;2023-07-29T14:37:19;28.90;53.10
13707;DHT22;6925;47.816;13.072;2023-07-29T14:39:46;28.90;52.50
13707;DHT22;6925;47.816;13.072;2023-07-29T14:42:14;28.80;53.10
13707;DHT22;6925;47.816;13.072;2023-07-29T14:44:41;28.70;52.40
13707;DHT22;6925;47.816;13.072;2023-07-29T14:47:08;28.60;53.00
13707;DHT22;6925;47.816;13.072;2023-07-29T14:49:35;28.50;52.50
13707;DHT22;6925;47.816;13.072;2023-07-29T14:52:03;28.40;53.30
13707;DHT22;6925;47.816;13.072;2023-07-29T14:54:30;28.30;53.60
13707;DHT22;6925;47.816;13.072;2023-07-29T14:56:57;28.30;53.90
13707;DHT22;6925;47.816;13.072;2023-07-29T14:59:26;28.20;54.00
13707;DHT22;6925;47.816;13.072;2023-07-29T15:01:53;28.10;54.70
13707;DHT22;6925;47.816;13.072;2023-07-29T15:04:20;27.90;53.50
13707;DHT22;6925;47.816;13.072;2023-07-29T15:06:47;27.80;53.70
13707;DHT22;6925;47.816;13.072;2023-07-29T15:09:14;27.60;53.60
13707;DHT22;6925;47.816;13.072;2023-07-29T15:11:41;27.40;53.70
13707;DHT22;6925;47.816;13.072;2023-07-29T15:14:08;27.20;54.50
13707;DHT22;6925;47.816;13.072;2023-07-29T15:16:37;26.90;56.90
13707;DHT22;6925;47.816;13.072;2023-07-29T15:19:05;25.60;59.50
13707;DHT22;6925;47.816;13.072;2023-07-29T15:21:32;24.70;63.80
13707;DHT22;6925;47.816;13.072;2023-07-29T15:24:00;24.20;66.60
13707;DHT22;6925;47.816;13.072;2023-07-29T15:26:27;23.80;67.80
13707;DHT22;6925;47.816;13.072;2023-07-29T15:28:54;23.50;68.80
13707;DHT22;6925;47.816;13.072;2023-07-29T15:31:21;23.30;71.20
13707;DHT22;6925;47.816;13.072;2023-07-29T15:33:50;23.30;72.50
13707;DHT22;6925;47.816;13.072;2023-07-29T15:36:17;23.30;71.40